Time;durP1;ratioP1;P1;durP2;ratioP2;P2;SDS_P1;SDS_P2;PMS_P1;PMS_P2;Temp;Humidity;BMP_temperature;BMP_pressure;BME280_temperature;BME280_humidity;BME280_pressure;Samples;Min_cycle;Max_cycle;Signal;HPM_P1;HPM_P2
2023/02/27 00:03:18;;;;;;;21.73;8.25;;;;;;;-0.12;77.36;100776.45;1925070;74;34660;-51
2023/02/27 00:05:46;;;;;;;21.33;8.33;;;;;;;-0.21;77.66;100777.78;1822389;78;25564;-51
2023/02/27 00:08:14;;;;;;;19.85;7.90;;;;;;;-0.22;77.74;100786.28;1855796;77;27487;-52
2023/02/27 00:10:41;;;;;;;21.60;7.55;;;;;;;-0.24;77.94;100780.88;1822099;78;25772;-49
2023/02/27 00:13:09;;;;;;;19.37;8.55;;;;;;;-0.26;77.75;100770.47;1822239;78;25396;-52
2023/02/27 00:15:39;;;;;;;21.48;7.35;;;;;;;-0.24;77.74;100777.73;1822199;78;25535;-49
2023/02/27 00:20:37;;;;;;;18.95;6.92;;;;;;;-0.16;77.99;100805.03;1905569;74;34736;-46
2023/02/27 00:23:09;;;;;;;13.65;6.28;;;;;;;-0.25;78.14;100801.88;1789194;80;25244;-48
2023/02/27 00:25:36;;;;;;;18.17;5.72;;;;;;;-0.25;78.09;100798.69;1810759;78;27343;-51
2023/02/27 00:28:05;;;;;;;18.90;6.62;;;;;;;-0.25;78.06;100804.01;1810424;79;25601;-46
2023/02/27 00:30:33;;;;;;;12.53;4.97;;;;;;;-0.26;78.07;100811.68;1810773;79;25525;-48
2023/02/27 00:33:00;;;;;;;11.68;5.80;;;;;;;-0.26;78.19;100810.88;1810921;79;25550;-49
2023/02/27 00:35:27;;;;;;;12.50;5.40;;;;;;;-0.25;78.19;100811.19;1811140;79;25514;-49
2023/02/27 00:37:53;;;;;;;9.70;4.83;;;;;;;-0.27;78.19;100811.41;1810919;79;27497;-48
2023/02/27 00:40:20;;;;;;;12.95;5.10;;;;;;;-0.27;78.24;100813.27;1810723;79;25547;-48
2023/02/27 00:42:48;;;;;;;15.90;5.60;;;;;;;-0.28;78.30;100815.09;1810853;79;25569;-48
2023/02/27 00:45:19;;;;;;;13.62;5.20;;;;;;;-0.27;78.45;100818.05;1790042;80;25499;-49
2023/02/27 00:47:49;;;;;;;14.87;5.37;;;;;;;-0.27;78.50;100815.92;1810732;79;25546;-49
2023/02/27 00:50:16;;;;;;;9.73;5.25;;;;;;;-0.28;78.56;100816.42;1810974;78;27040;-49
2023/02/27 00:52:43;;;;;;;13.43;5.55;;;;;;;-0.26;78.73;100818.85;1810660;78;25451;-49
2023/02/27 06:22:20;;;;;;;3.35;1.98;;;;;;;-0.78;83.08;101085.72;1841791;76;25837;-47
2023/02/27 06:24:47;;;;;;;3.42;2.25;;;;;;;-0.77;82.88;101094.00;1841862;77;27519;-48
2023/02/27 06:27:13;;;;;;;4.37;2.30;;;;;;;-0.76;82.74;101088.16;1841763;77;27261;-48
2023/02/27 06:29:39;;;;;;;4.05;2.27;;;;;;;-0.74;82.43;101091.94;1841874;76;25421;-48
2023/02/27 06:32:06;;;;;;;4.22;2.20;;;;;;;-0.74;82.31;101094.59;1841846;77;26393;-48
2023/02/27 06:34:33;;;;;;;3.50;2.15;;;;;;;-0.74;82.18;101093.27;1841956;76;25450;-48
2023/02/27 06:37:00;;;;;;;4.33;1.77;;;;;;;-0.72;82.20;101097.33;1841894;76;27505;-47
2023/02/27 06:39:26;;;;;;;4.10;1.90;;;;;;;-0.69;81.71;101099.56;1841722;76;25370;-48
2023/02/27 06:41:52;;;;;;;3.45;1.50;;;;;;;-0.68;81.17;101102.53;1841969;76;25430;-50
2023/02/27 06:44:19;;;;;;;2.90;1.55;;;;;;;-0.65;80.82;101112.70;1841924;76;35117;-47
2023/02/27 06:46:46;;;;;;;4.30;2.58;;;;;;;-0.61;80.75;101112.59;1841892;77;25454;-47
2023/02/27 06:49:12;;;;;;;3.67;1.80;;;;;;;-0.57;80.49;101112.98;1841813;76;27557;-47
2023/02/27 06:51:38;;;;;;;4.97;2.02;;;;;;;-0.50;80.16;101117.73;1841730;76;25525;-47
2023/02/27 06:54:05;;;;;;;4.30;1.80;;;;;;;-0.42;79.91;101124.64;1841960;76;25418;-49
2023/02/27 06:56:31;;;;;;;2.37;1.67;;;;;;;-0.37;79.07;101128.80;1841827;77;25574;-48
2023/02/27 06:58:57;;;;;;;3.98;1.98;;;;;;;-0.31;78.20;101128.44;1841932;76;25577;-48
2023/02/27 07:01:25;;;;;;;2.20;1.72;;;;;;;-0.24;78.13;101129.20;1841792;77;27552;-49
2023/02/27 07:03:51;;;;;;;2.98;1.70;;;;;;;-0.20;77.58;101129.89;1841718;77;25375;-48
2023/02/27 07:06:18;;;;;;;4.25;1.75;;;;;;;-0.15;77.01;101133.73;1841854;77;25382;-47
2023/02/27 07:08:44;;;;;;;2.98;1.70;;;;;;;-0.14;76.90;101130.85;1841878;76;25587;-51
2023/02/27 07:11:11;;;;;;;3.45;1.87;;;;;;;-0.05;76.76;101140.20;1841817;77;25644;-48
2023/02/27 07:13:37;;;;;;;2.40;1.67;;;;;;;0.09;76.51;101138.24;1841821;76;27485;-47
2023/02/27 07:16:05;;;;;;;4.20;2.00;;;;;;;0.35;77.63;101144.34;1841736;77;25564;-46
2023/02/27 07:18:31;;;;;;;2.65;1.72;;;;;;;0.86;79.38;101141.84;1841861;76;25380;-48
2023/02/27 07:20:57;;;;;;;3.92;1.90;;;;;;;1.32;78.34;101148.95;1841822;77;25494;-48
2023/02/27 07:23:24;;;;;;;3.92;1.77;;;;;;;1.84;78.38;101148.41;1841822;76;25343;-48
2023/02/27 07:46:56;;;;;;;2.90;2.12;;;;;;;5.98;69.08;101157.22;1771547;81;25480;-46
2023/02/27 07:49:23;;;;;;;3.20;2.30;;;;;;;6.44;67.54;101151.35;1755656;81;25487;-47
2023/02/27 07:51:49;;;;;;;7.53;2.62;;;;;;;6.88;66.71;101159.90;1754548;81;28187;-45
2023/02/27 07:54:16;;;;;;;8.78;2.67;;;;;;;7.42;65.27;101156.04;1754568;81;25644;-44
2023/02/27 07:56:43;;;;;;;5.92;2.52;;;;;;;7.95;63.88;101160.36;1754661;81;25597;-46
2023/02/27 07:59:09;;;;;;;4.58;2.37;;;;;;;8.20;62.54;101163.04;1754711;80;26156;-45
2023/02/27 08:01:36;;;;;;;5.37;1.90;;;;;;;8.57;62.07;101166.52;1754670;81;25592;-45
2023/02/27 08:04:02;;;;;;;2.47;1.80;;;;;;;9.03;60.85;101164.20;1754209;81;27465;-47
2023/02/27 08:06:29;;;;;;;5.90;2.58;;;;;;;9.64;59.19;101165.19;1753479;81;25702;-46
2023/02/27 08:08:55;;;;;;;5.08;3.00;;;;;;;10.35;57.57;101171.64;1754483;81;25658;-46
2023/02/27 08:11:21;;;;;;;7.87;2.72;;;;;;;11.02;56.73;101167.66;1754374;81;25538;-45
2023/02/27 08:13:48;;;;;;;4.33;3.15;;;;;;;11.33;55.40;101169.95;1754604;81;25630;-45
2023/02/27 08:16:15;;;;;;;3.92;2.70;;;;;;;11.18;54.20;101171.75;1754542;81;27729;-45
2023/02/27 08:18:41;;;;;;;5.83;2.60;;;;;;;11.27;53.36;101175.17;1754469;81;25861;-45
2023/02/27 08:21:07;;;;;;;3.65;2.15;;;;;;;11.33;52.96;101176.16;1754534;81;30420;-46
2023/02/27 08:23:34;;;;;;;5.75;2.50;;;;;;;11.11;51.28;101179.44;1754515;81;25611;-46
2023/02/27 08:26:01;;;;;;;5.65;2.55;;;;;;;11.13;51.85;101181.30;1754564;81;25413;-45
2023/02/27 08:28:29;;;;;;;5.30;2.45;;;;;;;11.39;51.77;101176.89;1754623;81;27580;-46
2023/02/27 08:30:55;;;;;;;5.15;2.58;;;;;;;11.62;51.41;101182.55;1754457;81;25708;-46
2023/02/27 08:33:24;;;;;;;12.43;4.17;;;;;;;11.92;51.57;101182.66;1754553;81;25580;-46
2023/02/27 08:35:50;;;;;;;4.72;2.58;;;;;;;12.39;51.33;101193.51;1754455;81;26022;-46
2023/02/27 08:38:17;;;;;;;6.37;2.77;;;;;;;12.62;49.34;101196.60;1754561;81;25592;-47
2023/02/27 08:40:43;;;;;;;5.25;2.98;;;;;;;11.93;47.43;101197.80;1754532;81;27475;-46
2023/02/27 08:43:09;;;;;;;9.73;2.90;;;;;;;11.59;45.92;101206.95;1754597;81;25768;-46
2023/02/27 08:45:35;;;;;;;6.37;3.02;;;;;;;10.94;46.47;101207.55;1748854;81;25213;-46
2023/02/27 08:48:02;;;;;;;5.90;1.95;;;;;;;10.27;46.15;101203.59;1735860;82;25616;-45
2023/02/27 08:50:28;;;;;;;4.12;2.25;;;;;;;9.56;46.12;101203.59;1735844;82;25390;-46
2023/02/27 08:52:54;;;;;;;3.55;1.70;;;;;;;8.89;46.48;101204.47;1735854;82;28171;-46
2023/02/27 08:55:21;;;;;;;5.30;2.20;;;;;;;8.33;46.68;101210.76;1735739;82;25787;-46
2023/02/27 08:57:47;;;;;;;3.72;2.60;;;;;;;7.72;46.94;101211.55;1735859;82;25616;-45
2023/02/27 09:00:15;;;;;;;5.35;2.67;;;;;;;7.24;47.29;101209.80;1735769;82;25624;-46
2023/02/27 09:02:41;;;;;;;3.80;2.85;;;;;;;6.82;47.62;101216.06;1735875;82;25514;-47
2023/02/27 09:05:10;;;;;;;5.03;2.62;;;;;;;6.38;47.81;101222.25;1735837;82;28561;-47
2023/02/27 09:07:37;;;;;;;4.08;1.98;;;;;;;6.00;48.38;101225.45;1735739;82;25438;-46
2023/02/27 09:10:06;;;;;;;4.15;1.90;;;;;;;5.56;48.46;101231.16;1735816;82;25387;-47
2023/02/27 09:12:32;;;;;;;6.15;3.45;;;;;;;5.22;48.88;101239.35;1735946;82;26430;-46
2023/02/27 09:14:58;;;;;;;5.03;2.65;;;;;;;4.91;48.80;101245.41;1735834;82;25574;-46
2023/02/27 09:17:24;;;;;;;4.12;2.12;;;;;;;4.66;49.88;101246.65;1735844;82;28492;-46
2023/02/27 09:19:51;;;;;;;4.10;2.20;;;;;;;4.44;50.16;101239.89;1735838;82;25375;-45
2023/02/27 09:22:19;;;;;;;6.78;1.77;;;;;;;4.21;50.04;101248.38;1735803;82;25402;-46
2023/02/27 09:24:46;;;;;;;2.52;1.42;;;;;;;3.99;50.42;101246.94;1735799;82;25573;-45
2023/02/27 09:27:13;;;;;;;2.30;1.70;;;;;;;3.80;50.32;101249.02;1735832;82;25485;-46
2023/02/27 09:29:40;;;;;;;2.65;1.85;;;;;;;3.65;50.55;101252.75;1735932;82;27705;-46
2023/02/27 09:32:07;;;;;;;3.47;1.98;;;;;;;3.57;51.36;101255.27;1735795;82;25631;-45
2023/02/27 09:34:34;;;;;;;3.42;1.98;;;;;;;3.51;51.44;101254.36;1735899;82;25402;-45
2023/02/27 09:37:01;;;;;;;3.65;2.15;;;;;;;3.54;51.99;101258.41;1735746;82;25546;-44
2023/02/27 09:39:29;;;;;;;5.80;1.90;;;;;;;3.65;51.91;101260.23;1735882;82;25422;-45
2023/02/27 09:42:14;;;;;;;5.72;2.08;;;;;;;3.67;50.70;101263.48;1735799;82;27581;-45
2023/02/27 09:44:59;;;;;;;3.77;1.50;;;;;;;4.48;55.10;101265.95;1735165;82;25841;-46
2023/02/27 09:47:37;;;;;;;5.17;2.42;;;;;;;5.37;53.25;101267.44;1735564;81;25387;-45
2023/02/27 09:50:36;;;;;;;3.67;1.80;;;;;;;5.47;51.66;101255.48;1718523;83;26189;-45
2023/02/27 09:53:14;;;;;;;1.60;1.50;;;;;;;5.33;50.46;101271.16;1740898;81;25610;-47
2023/02/27 09:55:43;;;;;;;2.52;1.70;;;;;;;5.01;49.89;101271.81;1736338;82;27464;-46
2023/02/27 09:58:21;;;;;;;2.70;1.87;;;;;;;4.84;49.46;101287.13;1736401;82;25567;-48
2023/02/27 10:01:02;;;;;;;4.67;1.95;;;;;;;4.88;49.68;101290.93;1736320;82;25609;-47
2023/02/27 10:04:03;;;;;;;2.87;2.00;;;;;;;4.80;49.66;101293.52;1724858;82;25491;-48
2023/02/27 10:06:53;;;;;;;4.55;2.60;;;;;;;4.64;49.14;101290.31;1735275;82;25684;-46
2023/02/27 10:09:45;;;;;;;3.77;2.40;;;;;;;4.28;48.98;101297.77;1736392;82;27488;-45
2023/02/27 10:12:35;;;;;;;4.67;2.52;;;;;;;3.99;49.22;101297.00;1736349;82;25275;-46
2023/02/27 10:15:24;;;;;;;3.67;2.72;;;;;;;3.73;50.20;101297.86;1736075;82;25627;-46
2023/02/27 10:18:08;;;;;;;5.33;2.80;;;;;;;3.54;50.44;101307.40;1736314;82;25596;-46
2023/02/27 10:20:39;;;;;;;4.67;2.27;;;;;;;3.34;50.67;101310.46;1736182;82;25408;-45
2023/02/27 10:23:17;;;;;;;7.10;2.55;;;;;;;3.14;50.73;101303.34;1736245;81;27665;-45
2023/02/27 10:25:49;;;;;;;6.50;2.47;;;;;;;2.98;51.32;101307.02;1735550;82;26242;-46
2023/02/27 10:28:20;;;;;;;3.45;2.25;;;;;;;2.89;51.48;101312.94;1736302;82;25574;-49
2023/02/27 10:30:52;;;;;;;7.47;3.15;;;;;;;2.83;51.97;101308.01;1736384;82;25438;-45
2023/02/27 10:33:41;;;;;;;5.35;2.98;;;;;;;2.86;51.64;101312.89;1735860;82;25404;-45
2023/02/27 10:36:10;;;;;;;3.55;2.15;;;;;;;2.86;51.66;101310.72;1736416;82;27519;-45
2023/02/27 10:38:51;;;;;;;6.67;3.20;;;;;;;2.84;51.93;101314.16;1736380;82;25585;-43
2023/02/27 10:41:20;;;;;;;4.60;2.30;;;;;;;2.84;51.63;101318.97;1735956;82;25629;-46
2023/02/27 10:43:46;;;;;;;7.30;2.70;;;;;;;2.80;50.95;101321.83;1736488;82;34744;-44
2023/02/27 10:46:21;;;;;;;9.83;3.12;;;;;;;2.74;50.98;101322.74;1741683;81;25635;-46
2023/02/27 10:48:47;;;;;;;12.28;4.53;;;;;;;2.72;51.26;101324.83;1753214;81;27528;-46
2023/02/27 10:51:31;;;;;;;16.12;5.78;;;;;;;2.71;51.16;101324.03;1753509;81;25761;-43
2023/02/27 10:54:23;;;;;;;7.40;3.37;;;;;;;2.70;51.24;101321.05;1753483;81;25428;-43
2023/02/27 10:56:58;;;;;;;5.20;2.77;;;;;;;2.73;51.55;101321.94;1754801;81;27677;-44
2023/02/27 10:59:39;;;;;;;7.28;2.42;;;;;;;2.86;51.35;101317.41;1754341;81;25520;-44
2023/02/27 11:02:20;;;;;;;7.40;3.87;;;;;;;3.08;52.07;101310.95;1754823;81;27560;-45
2023/02/27 11:04:54;;;;;;;3.80;2.05;;;;;;;3.50;51.56;101315.59;1742774;81;25628;-46
2023/02/27 11:07:34;;;;;;;3.50;1.90;;;;;;;3.57;50.80;101323.48;1754906;81;25403;-45
2023/02/27 11:10:15;;;;;;;2.30;2.00;;;;;;;3.50;50.67;101328.97;1754894;81;25616;-45
2023/02/27 11:13:03;;;;;;;4.42;2.05;;;;;;;3.46;50.39;101323.01;1752880;81;25600;-43
2023/02/27 11:15:36;;;;;;;5.25;2.45;;;;;;;3.36;50.36;101327.61;1752059;81;29632;-46
2023/02/27 11:18:28;;;;;;;7.47;3.58;;;;;;;3.26;50.36;101326.06;1754752;81;25692;-45
2023/02/27 11:21:16;;;;;;;5.30;2.37;;;;;;;3.21;50.78;101331.30;1754824;81;25452;-45
2023/02/27 11:24:08;;;;;;;3.37;2.20;;;;;;;3.11;50.86;101331.34;1754872;81;25473;-45
2023/02/27 11:26:39;;;;;;;4.78;2.22;;;;;;;3.01;50.76;101341.00;1754939;81;25610;-45
2023/02/27 11:29:17;;;;;;;7.80;2.40;;;;;;;2.92;50.89;101337.34;1754871;81;28693;-47
2023/02/27 11:32:05;;;;;;;5.58;2.58;;;;;;;2.84;51.18;101336.34;1754798;81;25623;-46
2023/02/27 11:34:42;;;;;;;7.45;3.08;;;;;;;2.75;50.91;101331.06;1754919;81;25400;-46
2023/02/27 11:37:34;;;;;;;5.00;2.90;;;;;;;2.65;51.39;101335.63;1754346;81;25498;-45
2023/02/27 11:40:11;;;;;;;6.15;3.05;;;;;;;2.57;51.59;101339.97;1754936;81;25618;-45
2023/02/27 11:42:50;;;;;;;5.00;3.22;;;;;;;2.38;51.27;101337.89;1754836;81;27503;-46
2023/02/27 11:45:25;;;;;;;4.15;2.98;;;;;;;2.23;51.65;101340.48;1754892;81;25506;-47
2023/02/27 11:47:56;;;;;;;7.58;3.87;;;;;;;2.13;51.69;101352.23;1754989;80;25588;-46
2023/02/27 11:50:37;;;;;;;6.65;3.92;;;;;;;2.03;52.02;101345.28;1754799;81;25508;-45
2023/02/27 11:53:53;;;;;;;6.85;2.95;;;;;;;1.96;52.28;101338.70;1754875;81;25559;-45
2023/02/27 11:56:28;;;;;;;5.65;3.45;;;;;;;1.88;52.42;101334.20;1754837;81;27536;-43
2023/02/27 11:59:05;;;;;;;6.95;3.33;;;;;;;1.74;52.35;101342.36;1754750;81;25367;-44
2023/02/27 12:02:01;;;;;;;4.92;2.60;;;;;;;1.58;52.64;101335.77;1754939;81;25616;-46
2023/02/27 12:04:39;;;;;;;6.67;4.90;;;;;;;1.55;52.71;101337.56;1753886;81;25557;-43
2023/02/27 12:07:20;;;;;;;6.80;4.28;;;;;;;1.48;53.08;101340.30;1754707;81;25603;-44
2023/02/27 12:10:13;;;;;;;5.65;4.87;;;;;;;1.45;53.33;101339.41;1753931;81;27507;-45
2023/02/27 12:13:03;;;;;;;15.05;6.00;;;;;;;1.39;53.47;101329.63;1754791;81;25720;-44
2023/02/27 12:15:47;;;;;;;17.02;9.13;;;;;;;1.42;53.97;101340.38;1754903;81;25559;-42
2023/02/27 12:18:21;;;;;;;5.78;3.40;;;;;;;1.44;54.02;101336.44;1754933;81;25475;-44
2023/02/27 12:21:06;;;;;;;4.20;2.77;;;;;;;1.39;54.27;101337.63;1753548;81;25474;-43
2023/02/27 12:23:50;;;;;;;4.33;2.58;;;;;;;1.36;54.20;101341.25;1744397;81;27463;-47
2023/02/27 12:26:25;;;;;;;4.35;2.45;;;;;;;1.27;54.16;101342.88;1754028;81;25678;-45
2023/02/27 12:29:12;;;;;;;4.40;2.52;;;;;;;1.22;54.10;101351.24;1754972;81;25534;-44
2023/02/27 12:32:02;;;;;;;7.87;3.52;;;;;;;1.16;54.47;101362.77;1754595;81;25608;-44
2023/02/27 12:34:49;;;;;;;4.28;3.17;;;;;;;1.15;54.66;101358.50;1754912;81;25477;-44
2023/02/27 12:37:25;;;;;;;5.90;3.27;;;;;;;1.14;54.62;101354.99;1753888;81;27575;-44
2023/02/27 12:39:55;;;;;;;6.20;3.33;;;;;;;1.13;54.80;101357.38;1754732;81;27440;-46
2023/02/27 12:43:04;;;;;;;6.20;3.67;;;;;;;1.10;54.91;101353.81;1731499;81;25663;-48
2023/02/27 12:46:04;;;;;;;6.97;2.13;;;;;;;1.08;54.86;101363.88;1755126;81;25628;-45
2023/02/27 12:48:42;;;;;;;5.03;3.62;;;;;;;0.99;54.94;101364.69;1752829;81;25543;-45
2023/02/27 12:51:29;;;;;;;7.75;3.90;;;;;;;1.01;55.47;101362.61;1752288;81;27510;-46
2023/02/27 12:54:33;;;;;;;5.65;2.85;;;;;;;1.03;55.78;101361.87;1752387;81;27356;-43
2023/02/27 12:57:29;;;;;;;6.58;3.02;;;;;;;1.09;55.71;101368.16;1752657;81;25460;-45
2023/02/27 13:00:16;;;;;;;6.12;3.12;;;;;;;1.07;55.80;101367.08;1752736;81;25538;-46
2023/02/27 13:03:06;;;;;;;7.55;3.27;;;;;;;1.08;55.69;101369.21;1752717;81;25451;-45
2023/02/27 13:05:44;;;;;;;6.17;3.45;;;;;;;1.09;55.78;101370.33;1752089;81;27845;-45
2023/02/27 13:08:25;;;;;;;7.40;3.12;;;;;;;1.10;55.92;101374.61;1752485;81;25592;-45
2023/02/27 13:11:35;;;;;;;5.12;3.42;;;;;;;1.09;55.71;101372.16;1752694;81;25424;-46
2023/02/27 13:14:16;;;;;;;6.72;3.52;;;;;;;1.04;55.55;101374.17;1680564;84;25654;-44
2023/02/27 13:17:07;;;;;;;8.55;5.12;;;;;;;0.96;55.46;101370.44;1661453;84;26158;-44
2023/02/27 13:19:41;;;;;;;6.55;3.98;;;;;;;0.93;55.56;101376.20;1694991;84;27481;-44
2023/02/27 13:22:31;;;;;;;7.30;3.92;;;;;;;0.90;55.53;101373.97;1694917;84;25741;-45
2023/02/27 13:25:01;;;;;;;;;;;;;;;0.90;55.65;101381.96;1697563;84;25459;-47
2023/02/27 13:27:36;;;;;;;5.78;3.30;;;;;;;0.91;55.79;101376.95;1695069;84;25651;-44
2023/02/27 13:30:08;;;;;;;4.17;3.10;;;;;;;0.90;55.84;101375.30;1695187;84;25432;-44
2023/02/27 13:33:07;;;;;;;4.70;2.60;;;;;;;0.90;55.46;101377.97;1694859;84;27472;-45
2023/02/27 13:36:17;;;;;;;3.42;1.92;;;;;;;0.87;55.68;101371.73;1695202;84;25422;-44
2023/02/27 13:38:52;;;;;;;4.50;3.12;;;;;;;0.89;55.64;101377.16;1643629;85;25473;-47
2023/02/27 13:41:34;;;;;;;7.20;3.60;;;;;;;0.87;55.30;101377.90;1643804;87;25828;-47
2023/02/27 13:44:22;;;;;;;3.60;2.75;;;;;;;0.91;55.38;101383.61;1643894;87;25676;-46
2023/02/27 13:46:49;;;;;;;5.92;3.15;;;;;;;0.92;55.23;101381.25;1636251;84;28007;-47
2023/02/27 13:49:25;;;;;;;5.53;3.22;;;;;;;0.95;55.40;101383.98;1694738;84;25647;-46
2023/02/27 13:51:58;;;;;;;3.58;2.70;;;;;;;0.94;55.25;101383.17;1694862;84;25199;-44
2023/02/27 13:54:36;;;;;;;6.65;2.98;;;;;;;0.95;55.46;101387.97;1694829;84;25618;-45
2023/02/27 13:57:21;;;;;;;4.37;2.70;;;;;;;0.95;55.24;101384.78;1693766;84;25606;-45
2023/02/27 13:59:56;;;;;;;6.28;3.10;;;;;;;0.93;55.30;101385.00;1694759;84;28762;-45
2023/02/27 14:02:42;;;;;;;4.00;2.90;;;;;;;0.91;55.44;101391.59;1666666;86;25648;-43
2023/02/27 14:05:14;;;;;;;9.13;4.53;;;;;;;0.86;55.43;101395.42;1666886;86;25554;-45
2023/02/27 14:08:02;;;;;;;11.25;6.47;;;;;;;0.80;55.24;101388.30;1666753;86;25538;-46
2023/02/27 14:10:32;;;;;;;9.63;4.97;;;;;;;0.78;55.37;101388.50;1713380;82;25564;-45
2023/02/27 14:13:02;;;;;;;8.20;4.70;;;;;;;0.76;55.66;101384.44;1730533;82;28103;-44
2023/02/27 14:15:53;;;;;;;6.37;3.87;;;;;;;0.74;55.82;101385.98;1730489;82;25394;-47
2023/02/27 14:18:51;;;;;;;6.28;2.87;;;;;;;0.72;56.04;101386.73;1730339;82;25463;-44
2023/02/27 14:22:02;;;;;;;5.47;3.42;;;;;;;0.71;55.88;101381.89;1699551;82;27377;-46
2023/02/27 14:24:42;;;;;;;4.07;2.83;;;;;;;0.65;55.61;101388.63;1730788;82;25361;-46
2023/02/27 14:27:30;;;;;;;4.58;2.72;;;;;;;0.59;55.86;101392.95;1730477;82;27489;-45
2023/02/27 14:30:08;;;;;;;4.90;2.80;;;;;;;0.56;56.01;101397.36;1730516;82;25643;-54
2023/02/27 14:32:37;;;;;;;6.05;3.50;;;;;;;0.57;56.31;101402.20;1730414;82;25477;-45
2023/02/27 14:35:05;;;;;;;5.03;3.35;;;;;;;0.54;56.47;101399.44;1730261;82;26141;-45
2023/02/27 14:37:33;;;;;;;5.70;3.27;;;;;;;0.55;56.15;101403.74;1730358;82;25495;-45
2023/02/27 14:40:04;;;;;;;6.10;3.40;;;;;;;0.57;56.20;101411.52;1730338;82;27470;-46
2023/02/27 14:43:02;;;;;;;4.47;2.80;;;;;;;0.55;56.25;101409.87;1730035;82;25624;-46
2023/02/27 14:45:30;;;;;;;5.87;2.90;;;;;;;0.52;56.07;101408.96;1730182;82;30834;-45
2023/02/27 14:47:57;;;;;;;5.22;3.58;;;;;;;0.51;56.20;101412.67;1727564;81;25567;-46
2023/02/27 14:50:36;;;;;;;10.08;3.65;;;;;;;0.48;56.00;101413.63;1724926;83;25434;-45
2023/02/27 14:53:05;;;;;;;5.58;3.77;;;;;;;0.42;55.96;101413.94;1724886;83;27735;-44
2023/02/27 14:55:36;;;;;;;9.13;3.40;;;;;;;0.36;55.89;101415.62;1724883;83;25567;-44
2023/02/27 14:58:20;;;;;;;7.12;3.98;;;;;;;0.33;56.14;101413.37;1724853;82;25419;-46
2023/02/27 15:01:08;;;;;;;10.93;4.65;;;;;;;0.31;56.48;101410.64;1724828;83;25602;-46
2023/02/27 15:03:45;;;;;;;10.75;4.17;;;;;;;0.30;56.43;101414.32;1724119;83;25456;-46
2023/02/27 15:06:22;;;;;;;6.25;3.92;;;;;;;0.29;56.57;101418.00;1724886;83;27538;-45
2023/02/27 15:08:53;;;;;;;5.87;4.37;;;;;;;0.27;56.73;101420.88;1724835;82;25567;-47
2023/02/27 15:11:22;;;;;;;8.95;4.47;;;;;;;0.27;56.87;101424.86;1724857;83;25639;-45
2023/02/27 15:13:57;;;;;;;7.08;3.75;;;;;;;0.26;57.04;101422.44;1724957;83;25586;-45
2023/02/27 15:16:32;;;;;;;5.42;3.85;;;;;;;0.25;57.10;101428.78;1724852;83;25485;-44
2023/02/27 15:19:04;;;;;;;6.53;3.62;;;;;;;0.21;56.98;101426.25;1724851;83;27588;-45
2023/02/27 15:21:36;;;;;;;6.85;4.12;;;;;;;0.21;56.95;101427.59;1724576;83;25717;-48
2023/02/27 15:24:07;;;;;;;20.92;11.00;;;;;;;0.20;56.90;101432.06;1724701;83;25577;-45
2023/02/27 15:49:37;;;;;;;5.72;3.87;;;;;;;0.04;56.89;101462.64;1780956;76;27346;31
2023/02/27 15:52:19;;;;;;;6.50;4.42;;;;;;;0.02;56.76;101465.19;1681366;84;25690;-46
2023/02/27 15:54:53;;;;;;;7.90;4.85;;;;;;;-0.06;56.45;101467.58;1664487;86;26130;-48
2023/02/27 15:57:22;;;;;;;11.93;4.80;;;;;;;-0.11;56.84;101480.17;1666509;85;25598;-45
2023/02/27 15:59:51;;;;;;;8.37;5.70;;;;;;;-0.11;56.92;101486.82;1666749;85;27483;-45
2023/02/27 16:02:22;;;;;;;8.65;5.05;;;;;;;-0.14;57.11;101487.23;1666514;85;25630;-45
2023/02/27 16:04:49;;;;;;;10.88;5.35;;;;;;;-0.14;57.04;101490.41;1666634;85;25450;-47
2023/02/27 16:07:20;;;;;;;17.98;6.92;;;;;;;-0.17;56.94;101492.99;1666452;86;26157;-45
2023/02/27 16:10:04;;;;;;;15.38;6.62;;;;;;;-0.18;56.98;101494.52;1666519;85;25595;-47
2023/02/27 16:12:36;;;;;;;9.85;4.17;;;;;;;-0.23;57.28;101496.47;1666410;85;28479;-44
2023/02/27 16:15:30;;;;;;;7.10;4.53;;;;;;;-0.26;57.23;101508.84;1666425;85;25614;-46
2023/02/27 16:18:10;;;;;;;8.83;5.03;;;;;;;-0.29;57.30;101515.90;1666499;86;25458;-44
2023/02/27 16:20:47;;;;;;;9.40;5.58;;;;;;;-0.34;57.21;101517.87;1666565;86;25721;-45
2023/02/27 16:23:28;;;;;;;8.23;5.42;;;;;;;-0.36;57.31;101519.89;1666552;86;25572;-46
2023/02/27 16:26:31;;;;;;;8.33;5.10;;;;;;;-0.39;57.47;101519.80;1666008;85;27591;-45
2023/02/27 16:29:18;;;;;;;5.60;4.05;;;;;;;-0.39;57.00;101520.33;1666432;86;25622;-44
2023/02/27 16:31:54;;;;;;;7.17;4.92;;;;;;;-0.43;57.29;101524.41;1666643;86;25638;-45
2023/02/27 16:34:42;;;;;;;10.25;7.70;;;;;;;-0.47;56.97;101529.83;1666510;86;25671;-44
2023/02/27 16:37:40;;;;;;;12.20;7.20;;;;;;;-0.50;57.12;101535.03;1666729;85;25582;-48
2023/02/27 16:40:17;;;;;;;10.95;6.72;;;;;;;-0.54;57.19;101535.15;1666798;86;27497;-47
2023/02/27 16:42:45;;;;;;;16.85;9.20;;;;;;;-0.53;57.24;101542.60;1678116;85;25229;-46
2023/02/27 16:45:26;;;;;;;14.78;8.93;;;;;;;-0.56;57.43;101546.50;1655309;86;25496;-45
2023/02/27 16:47:57;;;;;;;23.57;11.50;;;;;;;-0.59;57.46;101542.39;1666649;85;25494;-45
2023/02/27 16:50:32;;;;;;;14.65;8.20;;;;;;;-0.62;57.13;101540.66;1669568;84;25511;-44
2023/02/27 16:53:00;;;;;;;10.03;6.40;;;;;;;-0.64;57.19;101552.82;1665949;86;27535;-47
2023/02/27 16:55:30;;;;;;;9.33;5.10;;;;;;;-0.65;57.21;101553.02;1665863;86;25795;-45
2023/02/27 16:57:57;;;;;;;11.88;6.87;;;;;;;-0.67;57.30;101557.20;1666117;86;25554;-46
2023/02/27 17:00:24;;;;;;;11.35;6.78;;;;;;;-0.66;57.38;101556.72;1665944;86;26548;-47
2023/02/27 17:02:52;;;;;;;10.40;6.10;;;;;;;-0.67;57.50;101559.05;1666120;86;25492;-45
2023/02/27 17:05:19;;;;;;;16.50;7.50;;;;;;;-0.66;57.69;101564.69;1666114;86;27445;-43
2023/02/27 17:07:46;;;;;;;13.15;6.75;;;;;;;-0.67;57.63;101571.82;1665973;86;25628;-44
2023/02/27 17:10:21;;;;;;;22.50;8.00;;;;;;;-0.68;57.84;101568.87;1666084;86;25609;-45
2023/02/27 17:12:48;;;;;;;23.87;10.45;;;;;;;-0.67;58.07;101573.15;1666117;86;25518;-46
2023/02/27 17:15:17;;;;;;;28.07;13.08;;;;;;;-0.66;57.83;101578.78;1666125;86;25417;-47
2023/02/27 17:17:44;;;;;;;;;;;;;;;-0.67;57.82;101577.66;1668602;86;27537;-44
2023/02/27 17:20:13;;;;;;;22.40;10.35;;;;;;;-0.66;57.82;101587.28;1681076;85;25619;-43
2023/02/27 17:22:43;;;;;;;14.30;7.20;;;;;;;-0.65;58.12;101594.21;1679823;85;25722;-46
2023/02/27 17:25:10;;;;;;;;;;;;;;;-0.65;58.06;101598.20;1668328;86;25570;-46
2023/02/27 17:27:38;;;;;;;11.57;6.45;;;;;;;-0.64;57.86;101601.98;1665940;86;25618;-47
2023/02/27 17:30:07;;;;;;;12.60;6.35;;;;;;;-0.65;58.42;101600.34;1680628;85;28073;-46
2023/02/27 17:32:33;;;;;;;10.58;5.62;;;;;;;-0.66;58.21;101597.91;1680832;85;25626;-47
2023/02/27 17:35:00;;;;;;;11.85;6.78;;;;;;;-0.67;58.65;101606.89;1680727;85;25424;-44
2023/02/27 17:37:26;;;;;;;17.20;9.13;;;;;;;-0.66;58.43;101609.34;1680660;85;25584;-45
2023/02/27 17:39:53;;;;;;;15.53;8.35;;;;;;;-0.66;58.58;101605.88;1680773;85;25478;-45
2023/02/27 17:42:21;;;;;;;15.70;8.38;;;;;;;-0.65;58.73;101608.83;1680733;85;27490;-43
2023/02/27 17:44:48;;;;;;;11.68;6.78;;;;;;;-0.67;58.42;101602.38;1680625;85;25393;-45
2023/02/27 17:47:14;;;;;;;13.72;6.42;;;;;;;-0.68;58.29;101606.56;1680754;85;25597;-45
2023/02/27 17:49:41;;;;;;;10.58;6.37;;;;;;;-0.67;58.61;101611.69;1680679;85;27715;-45
2023/02/27 17:52:09;;;;;;;10.15;5.78;;;;;;;-0.67;58.61;101614.86;1686980;84;25468;-45
2023/02/27 17:54:36;;;;;;;9.65;6.10;;;;;;;-0.66;58.51;101618.65;1688369;85;27254;-45
2023/02/27 17:57:05;;;;;;;10.98;6.58;;;;;;;-0.65;58.64;101620.27;1688321;85;25650;-44
2023/02/27 17:59:32;;;;;;;10.55;7.08;;;;;;;-0.66;58.72;101623.96;1688528;85;25410;-44
2023/02/27 18:01:59;;;;;;;11.22;7.28;;;;;;;-0.64;58.95;101620.59;1688339;85;25624;-44
2023/02/27 18:04:25;;;;;;;11.40;6.50;;;;;;;-0.65;59.31;101623.44;1688345;85;25626;-45
2023/02/27 18:06:52;;;;;;;9.63;5.53;;;;;;;-0.64;59.12;101623.25;1688382;85;27991;-43
2023/02/27 18:09:18;;;;;;;9.78;5.50;;;;;;;-0.64;58.90;101623.25;1668510;85;25949;-45
2023/02/27 18:11:44;;;;;;;9.13;4.97;;;;;;;-0.65;58.84;101623.44;1688320;85;25560;-46
2023/02/27 18:14:10;;;;;;;11.48;5.92;;;;;;;-0.64;58.84;101625.91;1688284;85;27683;-44
2023/02/27 18:16:37;;;;;;;7.25;5.30;;;;;;;-0.65;58.60;101624.77;1688350;85;25604;-45
2023/02/27 18:19:05;;;;;;;10.30;5.47;;;;;;;-0.65;59.06;101622.12;1688382;85;28076;-45